sensor_id;sensor_type;location;lat;lon;timestamp;temperature;humidity
50013;DHT22;35901;48.694;9.476;2023-03-23T00:01:14;8.80;99.90
50013;DHT22;35901;48.694;9.476;2023-03-23T00:03:46;8.80;99.90
50013;DHT22;35901;48.694;9.476;2023-03-23T00:06:12;8.60;99.90
50013;DHT22;35901;48.694;9.476;2023-03-23T00:08:43;8.60;99.90
50013;DHT22;35901;48.694;9.476;2023-03-23T00:11:15;8.40;99.90
50013;DHT22;35901;48.694;9.476;2023-03-23T00:13:42;8.40;99.90
50013;DHT22;35901;48.694;9.476;2023-03-23T00:16:09;8.40;99.90
50013;DHT22;35901;48.694;9.476;2023-03-23T00:18:46;8.30;99.90
50013;DHT22;35901;48.694;9.476;2023-03-23T00:21:13;8.40;99.90
50013;DHT22;35901;48.694;9.476;2023-03-23T00:23:39;8.40;99.90
50013;DHT22;35901;48.694;9.476;2023-03-23T00:26:05;8.40;99.90
50013;DHT22;35901;48.694;9.476;2023-03-23T00:28:31;8.50;99.90
50013;DHT22;35901;48.694;9.476;2023-03-23T00:31:04;8.50;99.90
50013;DHT22;35901;48.694;9.476;2023-03-23T00:33:36;8.70;99.90
50013;DHT22;35901;48.694;9.476;2023-03-23T00:36:10;8.80;99.90
50013;DHT22;35901;48.694;9.476;2023-03-23T00:38:37;8.90;99.90
50013;DHT22;35901;48.694;9.476;2023-03-23T00:41:04;9.00;99.90
50013;DHT22;35901;48.694;9.476;2023-03-23T00:43:30;9.20;99.90
50013;DHT22;35901;48.694;9.476;2023-03-23T00:45:56;9.30;99.90
50013;DHT22;35901;48.694;9.476;2023-03-23T00:48:26;9.40;99.90
50013;DHT22;35901;48.694;9.476;2023-03-23T00:50:53;9.30;99.90
50013;DHT22;35901;48.694;9.476;2023-03-23T00:53:20;9.30;99.90
50013;DHT22;35901;48.694;9.476;2023-03-23T00:55:47;9.20;99.90
50013;DHT22;35901;48.694;9.476;2023-03-23T00:58:14;9.10;99.90
50013;DHT22;35901;48.694;9.476;2023-03-23T01:00:40;9.00;99.90
50013;DHT22;35901;48.694;9.476;2023-03-23T01:03:07;9.00;99.90
50013;DHT22;35901;48.694;9.476;2023-03-23T01:05:36;8.90;99.90
50013;DHT22;35901;48.694;9.476;2023-03-23T01:08:03;8.90;99.90
50013;DHT22;35901;48.694;9.476;2023-03-23T01:10:30;8.90;99.90
50013;DHT22;35901;48.694;9.476;2023-03-23T01:13:01;8.90;99.90
50013;DHT22;35901;48.694;9.476;2023-03-23T01:15:28;8.90;99.90
50013;DHT22;35901;48.694;9.476;2023-03-23T01:17:53;8.80;99.90
50013;DHT22;35901;48.694;9.476;2023-03-23T01:20:20;8.80;99.90
50013;DHT22;35901;48.694;9.476;2023-03-23T01:22:46;8.70;99.90
50013;DHT22;35901;48.694;9.476;2023-03-23T01:25:13;8.70;99.90
50013;DHT22;35901;48.694;9.476;2023-03-23T01:27:39;8.70;99.90
50013;DHT22;35901;48.694;9.476;2023-03-23T01:30:05;8.70;99.90
50013;DHT22;35901;48.694;9.476;2023-03-23T01:32:32;8.70;99.90
50013;DHT22;35901;48.694;9.476;2023-03-23T01:34:58;8.70;99.90
50013;DHT22;35901;48.694;9.476;2023-03-23T01:37:23;8.60;99.90
50013;DHT22;35901;48.694;9.476;2023-03-23T01:39:53;8.60;99.90
50013;DHT22;35901;48.694;9.476;2023-03-23T01:42:22;8.50;99.90
50013;DHT22;35901;48.694;9.476;2023-03-23T01:47:17;8.50;99.90
50013;DHT22;35901;48.694;9.476;2023-03-23T01:49:47;8.50;99.90
50013;DHT22;35901;48.694;9.476;2023-03-23T01:52:22;8.50;99.90
50013;DHT22;35901;48.694;9.476;2023-03-23T01:54:51;8.50;99.90
50013;DHT22;35901;48.694;9.476;2023-03-23T01:57:19;8.40;99.90
50013;DHT22;35901;48.694;9.476;2023-03-23T01:59:49;8.30;99.90
50013;DHT22;35901;48.694;9.476;2023-03-23T02:02:21;8.30;99.90
50013;DHT22;35901;48.694;9.476;2023-03-23T02:04:48;8.20;99.90
50013;DHT22;35901;48.694;9.476;2023-03-23T02:07:15;8.30;99.90
50013;DHT22;35901;48.694;9.476;2023-03-23T02:09:42;8.30;99.90
50013;DHT22;35901;48.694;9.476;2023-03-23T02:12:08;8.40;99.90
50013;DHT22;35901;48.694;9.476;2023-03-23T02:14:36;8.60;99.90
50013;DHT22;35901;48.694;9.476;2023-03-23T02:17:16;8.70;99.90
50013;DHT22;35901;48.694;9.476;2023-03-23T02:22:57;8.90;99.90
50013;DHT22;35901;48.694;9.476;2023-03-23T02:31:57;9.00;99.90
50013;DHT22;35901;48.694;9.476;2023-03-23T02:34:30;8.90;99.90
50013;DHT22;35901;48.694;9.476;2023-03-23T02:37:08;8.80;99.90
50013;DHT22;35901;48.694;9.476;2023-03-23T02:39:47;8.80;99.90
50013;DHT22;35901;48.694;9.476;2023-03-23T02:42:17;8.80;99.90
50013;DHT22;35901;48.694;9.476;2023-03-23T02:44:47;8.80;99.90
50013;DHT22;35901;48.694;9.476;2023-03-23T02:47:25;8.60;99.90
50013;DHT22;35901;48.694;9.476;2023-03-23T02:49:54;8.50;99.90
50013;DHT22;35901;48.694;9.476;2023-03-23T02:52:23;8.40;99.90
50013;DHT22;35901;48.694;9.476;2023-03-23T02:54:52;8.40;99.90
50013;DHT22;35901;48.694;9.476;2023-03-23T02:57:20;8.40;99.90
50013;DHT22;35901;48.694;9.476;2023-03-23T02:59:46;8.40;99.90
50013;DHT22;35901;48.694;9.476;2023-03-23T03:02:17;8.40;99.90
50013;DHT22;35901;48.694;9.476;2023-03-23T03:07:41;8.40;99.90
50013;DHT22;35901;48.694;9.476;2023-03-23T03:16:07;8.50;99.90
50013;DHT22;35901;48.694;9.476;2023-03-23T03:21:14;8.60;99.90
50013;DHT22;35901;48.694;9.476;2023-03-23T03:23:43;8.60;99.90
50013;DHT22;35901;48.694;9.476;2023-03-23T03:26:12;8.60;99.90
50013;DHT22;35901;48.694;9.476;2023-03-23T03:28:49;8.60;99.90
50013;DHT22;35901;48.694;9.476;2023-03-23T03:31:32;8.70;99.90
50013;DHT22;35901;48.694;9.476;2023-03-23T03:33:58;8.70;99.90
50013;DHT22;35901;48.694;9.476;2023-03-23T03:36:34;8.70;99.90
50013;DHT22;35901;48.694;9.476;2023-03-23T03:39:06;8.70;99.90
50013;DHT22;35901;48.694;9.476;2023-03-23T03:41:35;8.70;99.90
50013;DHT22;35901;48.694;9.476;2023-03-23T03:44:03;8.70;99.90
50013;DHT22;35901;48.694;9.476;2023-03-23T03:46:29;8.70;99.90
50013;DHT22;35901;48.694;9.476;2023-03-23T03:49:03;8.70;99.90
50013;DHT22;35901;48.694;9.476;2023-03-23T03:51:31;8.60;99.90
50013;DHT22;35901;48.694;9.476;2023-03-23T03:53:57;8.50;99.90
50013;DHT22;35901;48.694;9.476;2023-03-23T03:56:24;8.60;99.90
50013;DHT22;35901;48.694;9.476;2023-03-23T03:59:02;8.60;99.90
50013;DHT22;35901;48.694;9.476;2023-03-23T04:02:04;8.70;99.90
50013;DHT22;35901;48.694;9.476;2023-03-23T04:04:29;8.70;99.90
50013;DHT22;35901;48.694;9.476;2023-03-23T04:06:55;8.70;99.90
50013;DHT22;35901;48.694;9.476;2023-03-23T04:09:22;8.70;99.90
50013;DHT22;35901;48.694;9.476;2023-03-23T04:11:48;8.60;99.90
50013;DHT22;35901;48.694;9.476;2023-03-23T04:14:34;8.50;99.90
50013;DHT22;35901;48.694;9.476;2023-03-23T04:17:00;8.30;99.90
50013;DHT22;35901;48.694;9.476;2023-03-23T04:19:27;8.30;99.90
50013;DHT22;35901;48.694;9.476;2023-03-23T04:21:54;8.20;99.90
50013;DHT22;35901;48.694;9.476;2023-03-23T04:24:20;8.30;99.90
50013;DHT22;35901;48.694;9.476;2023-03-23T04:26:47;8.30;99.90
50013;DHT22;35901;48.694;9.476;2023-03-23T04:29:21;8.30;99.90
50013;DHT22;35901;48.694;9.476;2023-03-23T04:32:05;8.40;99.90
50013;DHT22;35901;48.694;9.476;2023-03-23T04:34:37;8.50;99.90
50013;DHT22;35901;48.694;9.476;2023-03-23T04:37:03;8.60;99.90
50013;DHT22;35901;48.694;9.476;2023-03-23T04:39:30;8.60;99.90
50013;DHT22;35901;48.694;9.476;2023-03-23T04:42:01;8.60;99.90
50013;DHT22;35901;48.694;9.476;2023-03-23T04:44:49;8.60;99.90
50013;DHT22;35901;48.694;9.476;2023-03-23T04:47:24;8.70;99.90
50013;DHT22;35901;48.694;9.476;2023-03-23T04:49:56;8.70;99.90
50013;DHT22;35901;48.694;9.476;2023-03-23T04:52:31;8.70;99.90
50013;DHT22;35901;48.694;9.476;2023-03-23T04:54:59;8.70;99.90
50013;DHT22;35901;48.694;9.476;2023-03-23T04:57:27;8.70;99.90
50013;DHT22;35901;48.694;9.476;2023-03-23T05:00:12;8.70;99.90
50013;DHT22;35901;48.694;9.476;2023-03-23T05:02:44;8.60;99.90
50013;DHT22;35901;48.694;9.476;2023-03-23T05:05:13;8.50;99.90
50013;DHT22;35901;48.694;9.476;2023-03-23T05:07:40;8.50;99.90
50013;DHT22;35901;48.694;9.476;2023-03-23T05:10:07;8.40;99.90
50013;DHT22;35901;48.694;9.476;2023-03-23T05:12:34;8.30;99.90
50013;DHT22;35901;48.694;9.476;2023-03-23T05:15:05;8.30;99.90
50013;DHT22;35901;48.694;9.476;2023-03-23T05:17:32;8.30;99.90
50013;DHT22;35901;48.694;9.476;2023-03-23T05:20:00;8.40;99.90
50013;DHT22;35901;48.694;9.476;2023-03-23T05:22:34;8.40;99.90
50013;DHT22;35901;48.694;9.476;2023-03-23T05:25:03;8.50;99.90
50013;DHT22;35901;48.694;9.476;2023-03-23T05:27:33;8.50;99.90
50013;DHT22;35901;48.694;9.476;2023-03-23T05:30:08;8.60;99.90
50013;DHT22;35901;48.694;9.476;2023-03-23T05:32:38;8.60;99.90
50013;DHT22;35901;48.694;9.476;2023-03-23T05:35:20;8.60;99.90
50013;DHT22;35901;48.694;9.476;2023-03-23T05:37:50;8.60;99.90
50013;DHT22;35901;48.694;9.476;2023-03-23T05:40:19;8.60;99.90
50013;DHT22;35901;48.694;9.476;2023-03-23T05:42:52;8.50;99.90
50013;DHT22;35901;48.694;9.476;2023-03-23T05:45:25;8.50;99.90
50013;DHT22;35901;48.694;9.476;2023-03-23T05:47:52;8.50;99.90
50013;DHT22;35901;48.694;9.476;2023-03-23T05:50:20;8.50;99.90
50013;DHT22;35901;48.694;9.476;2023-03-23T05:52:46;8.60;99.90
50013;DHT22;35901;48.694;9.476;2023-03-23T05:55:14;8.60;99.90
50013;DHT22;35901;48.694;9.476;2023-03-23T05:57:43;8.60;99.90
50013;DHT22;35901;48.694;9.476;2023-03-23T06:00:31;8.70;99.90
50013;DHT22;35901;48.694;9.476;2023-03-23T06:03:10;8.80;99.90
50013;DHT22;35901;48.694;9.476;2023-03-23T06:05:47;8.90;99.90
50013;DHT22;35901;48.694;9.476;2023-03-23T06:08:16;9.00;99.90
50013;DHT22;35901;48.694;9.476;2023-03-23T06:10:42;9.10;99.90
50013;DHT22;35901;48.694;9.476;2023-03-23T06:13:10;9.10;99.90
50013;DHT22;35901;48.694;9.476;2023-03-23T06:15:46;9.20;99.90
50013;DHT22;35901;48.694;9.476;2023-03-23T06:18:33;9.20;99.90
50013;DHT22;35901;48.694;9.476;2023-03-23T06:21:23;9.20;99.90
50013;DHT22;35901;48.694;9.476;2023-03-23T06:23:52;9.20;99.90
50013;DHT22;35901;48.694;9.476;2023-03-23T06:26:21;9.20;99.90
50013;DHT22;35901;48.694;9.476;2023-03-23T06:28:54;9.30;99.90
50013;DHT22;35901;48.694;9.476;2023-03-23T06:31:20;9.30;99.90
50013;DHT22;35901;48.694;9.476;2023-03-23T06:33:47;9.40;99.90
50013;DHT22;35901;48.694;9.476;2023-03-23T06:36:25;9.50;99.90
50013;DHT22;35901;48.694;9.476;2023-03-23T06:39:15;9.50;99.90
50013;DHT22;35901;48.694;9.476;2023-03-23T06:42:01;9.60;99.90
50013;DHT22;35901;48.694;9.476;2023-03-23T06:44:31;9.60;99.90
50013;DHT22;35901;48.694;9.476;2023-03-23T06:46:56;9.70;99.90
50013;DHT22;35901;48.694;9.476;2023-03-23T06:49:26;9.90;99.90
50013;DHT22;35901;48.694;9.476;2023-03-23T06:52:03;9.90;99.90
50013;DHT22;35901;48.694;9.476;2023-03-23T06:54:31;9.90;99.90
50013;DHT22;35901;48.694;9.476;2023-03-23T06:57:02;10.00;99.90
50013;DHT22;35901;48.694;9.476;2023-03-23T06:59:28;9.90;99.90
50013;DHT22;35901;48.694;9.476;2023-03-23T07:01:54;9.90;99.90
50013;DHT22;35901;48.694;9.476;2023-03-23T07:04:20;9.90;99.90
50013;DHT22;35901;48.694;9.476;2023-03-23T07:06:55;9.80;99.90
50013;DHT22;35901;48.694;9.476;2023-03-23T07:09:22;9.90;99.90
50013;DHT22;35901;48.694;9.476;2023-03-23T07:11:47;10.00;99.90
50013;DHT22;35901;48.694;9.476;2023-03-23T07:14:22;10.10;99.90
50013;DHT22;35901;48.694;9.476;2023-03-23T07:16:49;10.20;99.90
50013;DHT22;35901;48.694;9.476;2023-03-23T07:19:15;10.40;99.90
50013;DHT22;35901;48.694;9.476;2023-03-23T07:21:41;10.60;99.90
50013;DHT22;35901;48.694;9.476;2023-03-23T07:24:11;10.70;99.90
50013;DHT22;35901;48.694;9.476;2023-03-23T07:26:51;10.90;99.90
50013;DHT22;35901;48.694;9.476;2023-03-23T07:29:17;11.10;99.90
50013;DHT22;35901;48.694;9.476;2023-03-23T07:31:46;11.20;99.90
50013;DHT22;35901;48.694;9.476;2023-03-23T07:34:14;11.30;99.90
50013;DHT22;35901;48.694;9.476;2023-03-23T07:37:00;11.50;99.90
50013;DHT22;35901;48.694;9.476;2023-03-23T07:39:28;11.50;99.90
50013;DHT22;35901;48.694;9.476;2023-03-23T07:41:56;11.60;99.90
50013;DHT22;35901;48.694;9.476;2023-03-23T07:44:34;11.60;99.90
50013;DHT22;35901;48.694;9.476;2023-03-23T07:47:05;11.60;99.90
50013;DHT22;35901;48.694;9.476;2023-03-23T07:49:32;11.50;99.90
50013;DHT22;35901;48.694;9.476;2023-03-23T07:52:15;11.60;99.90
50013;DHT22;35901;48.694;9.476;2023-03-23T07:54:41;11.50;99.90
50013;DHT22;35901;48.694;9.476;2023-03-23T07:57:16;11.40;99.90
50013;DHT22;35901;48.694;9.476;2023-03-23T07:59:48;11.40;99.90
50013;DHT22;35901;48.694;9.476;2023-03-23T08:02:14;11.40;99.90
50013;DHT22;35901;48.694;9.476;2023-03-23T08:04:39;11.40;99.90
50013;DHT22;35901;48.694;9.476;2023-03-23T08:07:24;11.50;99.90
50013;DHT22;35901;48.694;9.476;2023-03-23T08:10:02;11.70;99.90
50013;DHT22;35901;48.694;9.476;2023-03-23T08:12:40;11.90;99.90
50013;DHT22;35901;48.694;9.476;2023-03-23T08:15:41;12.10;99.90
50013;DHT22;35901;48.694;9.476;2023-03-23T08:18:38;12.40;99.90
50013;DHT22;35901;48.694;9.476;2023-03-23T08:21:19;12.60;99.90
50013;DHT22;35901;48.694;9.476;2023-03-23T08:24:05;12.90;99.90
50013;DHT22;35901;48.694;9.476;2023-03-23T08:26:54;13.00;99.90
50013;DHT22;35901;48.694;9.476;2023-03-23T08:29:20;13.20;99.90
50013;DHT22;35901;48.694;9.476;2023-03-23T08:32:08;13.40;99.90
50013;DHT22;35901;48.694;9.476;2023-03-23T08:34:51;13.80;99.90
50013;DHT22;35901;48.694;9.476;2023-03-23T08:37:52;14.30;99.90
50013;DHT22;35901;48.694;9.476;2023-03-23T08:40:38;14.90;99.90
50013;DHT22;35901;48.694;9.476;2023-03-23T08:43:37;15.50;99.90
50013;DHT22;35901;48.694;9.476;2023-03-23T08:46:33;16.00;99.90
50013;DHT22;35901;48.694;9.476;2023-03-23T08:49:28;16.50;99.90
50013;DHT22;35901;48.694;9.476;2023-03-23T08:52:20;16.80;99.90
50013;DHT22;35901;48.694;9.476;2023-03-23T08:55:08;16.80;99.90
50013;DHT22;35901;48.694;9.476;2023-03-23T08:57:56;16.60;99.90
50013;DHT22;35901;48.694;9.476;2023-03-23T09:00:43;16.50;99.90
50013;DHT22;35901;48.694;9.476;2023-03-23T09:03:27;16.50;99.90
50013;DHT22;35901;48.694;9.476;2023-03-23T09:06:12;16.40;99.90
50013;DHT22;35901;48.694;9.476;2023-03-23T09:08:44;16.30;99.90
50013;DHT22;35901;48.694;9.476;2023-03-23T09:11:10;16.20;99.90
50013;DHT22;35901;48.694;9.476;2023-03-23T09:13:37;16.10;99.90
50013;DHT22;35901;48.694;9.476;2023-03-23T09:16:04;15.90;99.90
50013;DHT22;35901;48.694;9.476;2023-03-23T09:18:31;15.80;99.90
50013;DHT22;35901;48.694;9.476;2023-03-23T09:20:58;15.70;99.90
50013;DHT22;35901;48.694;9.476;2023-03-23T09:23:24;15.70;99.90
50013;DHT22;35901;48.694;9.476;2023-03-23T09:25:50;15.70;99.90
50013;DHT22;35901;48.694;9.476;2023-03-23T09:28:17;15.70;99.90
50013;DHT22;35901;48.694;9.476;2023-03-23T09:30:43;15.80;99.90
50013;DHT22;35901;48.694;9.476;2023-03-23T09:33:09;15.80;99.90
50013;DHT22;35901;48.694;9.476;2023-03-23T09:35:35;15.90;99.90
50013;DHT22;35901;48.694;9.476;2023-03-23T09:38:05;15.90;99.90
50013;DHT22;35901;48.694;9.476;2023-03-23T09:46:24;16.10;99.90
50013;DHT22;35901;48.694;9.476;2023-03-23T09:48:54;16.20;99.90
50013;DHT22;35901;48.694;9.476;2023-03-23T09:51:46;16.10;99.90
50013;DHT22;35901;48.694;9.476;2023-03-23T09:54:28;16.20;99.90
50013;DHT22;35901;48.694;9.476;2023-03-23T09:56:55;16.40;99.90
50013;DHT22;35901;48.694;9.476;2023-03-23T09:59:40;16.60;99.90
50013;DHT22;35901;48.694;9.476;2023-03-23T10:02:17;16.60;99.40
50013;DHT22;35901;48.694;9.476;2023-03-23T10:04:55;16.50;99.60
50013;DHT22;35901;48.694;9.476;2023-03-23T10:07:24;16.50;99.90
50013;DHT22;35901;48.694;9.476;2023-03-23T10:09:59;16.40;99.80
50013;DHT22;35901;48.694;9.476;2023-03-23T10:12:42;16.40;99.70
50013;DHT22;35901;48.694;9.476;2023-03-23T10:17:53;16.60;99.50
50013;DHT22;35901;48.694;9.476;2023-03-23T10:28:39;16.40;99.90
50013;DHT22;35901;48.694;9.476;2023-03-23T10:31:11;16.50;99.90
50013;DHT22;35901;48.694;9.476;2023-03-23T10:33:42;16.70;99.90
50013;DHT22;35901;48.694;9.476;2023-03-23T10:38:49;16.90;99.50
50013;DHT22;35901;48.694;9.476;2023-03-23T10:41:19;16.90;99.20
50013;DHT22;35901;48.694;9.476;2023-03-23T10:43:47;17.10;98.70
50013;DHT22;35901;48.694;9.476;2023-03-23T10:46:46;17.00;98.60
50013;DHT22;35901;48.694;9.476;2023-03-23T10:49:22;17.00;98.10
50013;DHT22;35901;48.694;9.476;2023-03-23T10:54:46;16.70;98.60
50013;DHT22;35901;48.694;9.476;2023-03-23T10:59:50;16.70;98.70
50013;DHT22;35901;48.694;9.476;2023-03-23T11:02:20;16.50;98.10
50013;DHT22;35901;48.694;9.476;2023-03-23T11:05:13;16.50;98.20
50013;DHT22;35901;48.694;9.476;2023-03-23T11:07:40;16.60;98.10
50013;DHT22;35901;48.694;9.476;2023-03-23T11:10:47;16.80;98.40
50013;DHT22;35901;48.694;9.476;2023-03-23T11:13:15;17.10;98.20
50013;DHT22;35901;48.694;9.476;2023-03-23T11:15:43;17.50;97.70
50013;DHT22;35901;48.694;9.476;2023-03-23T11:18:18;17.70;97.10
50013;DHT22;35901;48.694;9.476;2023-03-23T11:20:47;17.60;96.90
50013;DHT22;35901;48.694;9.476;2023-03-23T11:23:33;17.60;97.00
50013;DHT22;35901;48.694;9.476;2023-03-23T11:28:57;17.80;97.50
50013;DHT22;35901;48.694;9.476;2023-03-23T11:31:28;18.00;96.70
50013;DHT22;35901;48.694;9.476;2023-03-23T11:34:03;18.00;96.30
50013;DHT22;35901;48.694;9.476;2023-03-23T11:36:41;17.90;95.90
50013;DHT22;35901;48.694;9.476;2023-03-23T11:39:29;17.80;95.40
50013;DHT22;35901;48.694;9.476;2023-03-23T11:41:58;17.60;95.60
50013;DHT22;35901;48.694;9.476;2023-03-23T11:44:32;17.50;95.70
50013;DHT22;35901;48.694;9.476;2023-03-23T11:47:08;17.40;95.50
50013;DHT22;35901;48.694;9.476;2023-03-23T11:49:52;17.20;96.10
50013;DHT22;35901;48.694;9.476;2023-03-23T11:55:14;17.40;95.90
50013;DHT22;35901;48.694;9.476;2023-03-23T11:57:41;17.50;95.60
50013;DHT22;35901;48.694;9.476;2023-03-23T12:00:18;17.50;95.80
50013;DHT22;35901;48.694;9.476;2023-03-23T12:02:59;17.60;95.90
50013;DHT22;35901;48.694;9.476;2023-03-23T12:05:51;17.70;96.40
50013;DHT22;35901;48.694;9.476;2023-03-23T12:12:04;18.00;95.10
50013;DHT22;35901;48.694;9.476;2023-03-23T12:14:19;18.10;94.30
50013;DHT22;35901;48.694;9.476;2023-03-23T12:16:57;18.10;94.10
50013;DHT22;35901;48.694;9.476;2023-03-23T12:19:48;18.00;94.20
50013;DHT22;35901;48.694;9.476;2023-03-23T12:22:32;18.10;94.20
50013;DHT22;35901;48.694;9.476;2023-03-23T12:30:29;18.00;93.60
50013;DHT22;35901;48.694;9.476;2023-03-23T12:33:02;18.10;93.80
50013;DHT22;35901;48.694;9.476;2023-03-23T12:43:54;17.90;93.10
50013;DHT22;35901;48.694;9.476;2023-03-23T12:46:46;17.80;92.80
50013;DHT22;35901;48.694;9.476;2023-03-23T12:52:16;17.60;93.60
50013;DHT22;35901;48.694;9.476;2023-03-23T12:54:58;17.60;93.70
50013;DHT22;35901;48.694;9.476;2023-03-23T12:57:35;17.50;93.70
50013;DHT22;35901;48.694;9.476;2023-03-23T13:05:27;17.50;93.30
50013;DHT22;35901;48.694;9.476;2023-03-23T13:07:59;17.50;93.30
50013;DHT22;35901;48.694;9.476;2023-03-23T13:10:50;17.60;93.00
50013;DHT22;35901;48.694;9.476;2023-03-23T13:13:19;17.70;93.20
50013;DHT22;35901;48.694;9.476;2023-03-23T13:16:11;17.70;93.10
50013;DHT22;35901;48.694;9.476;2023-03-23T13:19:09;17.70;92.10
50013;DHT22;35901;48.694;9.476;2023-03-23T13:22:02;17.80;92.10
50013;DHT22;35901;48.694;9.476;2023-03-23T13:24:33;17.80;92.10
50013;DHT22;35901;48.694;9.476;2023-03-23T13:27:00;17.80;91.70
50013;DHT22;35901;48.694;9.476;2023-03-23T13:29:27;17.70;91.60
50013;DHT22;35901;48.694;9.476;2023-03-23T13:32:15;17.60;91.60
50013;DHT22;35901;48.694;9.476;2023-03-23T13:34:42;17.60;91.70
50013;DHT22;35901;48.694;9.476;2023-03-23T13:37:23;17.60;91.90
50013;DHT22;35901;48.694;9.476;2023-03-23T13:42:55;17.70;91.60
50013;DHT22;35901;48.694;9.476;2023-03-23T13:45:24;17.70;91.90
50013;DHT22;35901;48.694;9.476;2023-03-23T13:53:45;17.60;92.10
50013;DHT22;35901;48.694;9.476;2023-03-23T13:56:18;17.60;92.20
50013;DHT22;35901;48.694;9.476;2023-03-23T13:58:50;17.60;92.10
50013;DHT22;35901;48.694;9.476;2023-03-23T14:01:35;17.50;92.20
50013;DHT22;35901;48.694;9.476;2023-03-23T14:04:12;17.60;92.40
50013;DHT22;35901;48.694;9.476;2023-03-23T14:06:40;17.60;92.50
50013;DHT22;35901;48.694;9.476;2023-03-23T14:09:30;17.70;92.50
50013;DHT22;35901;48.694;9.476;2023-03-23T14:12:02;17.80;92.50
50013;DHT22;35901;48.694;9.476;2023-03-23T14:14:40;17.70;92.10
50013;DHT22;35901;48.694;9.476;2023-03-23T14:17:12;17.60;91.80
50013;DHT22;35901;48.694;9.476;2023-03-23T14:19:40;17.60;92.00
50013;DHT22;35901;48.694;9.476;2023-03-23T14:22:22;17.60;92.30
50013;DHT22;35901;48.694;9.476;2023-03-23T14:24:48;17.60;92.40
50013;DHT22;35901;48.694;9.476;2023-03-23T14:27:20;17.50;92.70
50013;DHT22;35901;48.694;9.476;2023-03-23T14:29:57;17.50;92.60
50013;DHT22;35901;48.694;9.476;2023-03-23T14:32:24;17.40;92.60
50013;DHT22;35901;48.694;9.476;2023-03-23T14:34:52;17.30;92.30
50013;DHT22;35901;48.694;9.476;2023-03-23T14:37:18;17.20;92.30
50013;DHT22;35901;48.694;9.476;2023-03-23T14:39:48;17.20;92.20
50013;DHT22;35901;48.694;9.476;2023-03-23T14:42:16;17.10;92.00
50013;DHT22;35901;48.694;9.476;2023-03-23T14:44:45;17.10;91.20
50013;DHT22;35901;48.694;9.476;2023-03-23T14:47:38;17.00;91.40
50013;DHT22;35901;48.694;9.476;2023-03-23T14:50:07;17.00;91.50
50013;DHT22;35901;48.694;9.476;2023-03-23T14:52:47;17.00;91.10
50013;DHT22;35901;48.694;9.476;2023-03-23T14:55:17;16.90;90.90
50013;DHT22;35901;48.694;9.476;2023-03-23T14:57:43;16.90;91.00
50013;DHT22;35901;48.694;9.476;2023-03-23T15:00:16;16.90;90.90
50013;DHT22;35901;48.694;9.476;2023-03-23T15:02:45;16.80;91.00
50013;DHT22;35901;48.694;9.476;2023-03-23T15:05:19;16.80;91.00
50013;DHT22;35901;48.694;9.476;2023-03-23T15:07:50;16.80;91.00
50013;DHT22;35901;48.694;9.476;2023-03-23T15:10:20;16.80;91.00
50013;DHT22;35901;48.694;9.476;2023-03-23T15:12:47;16.80;91.00
50013;DHT22;35901;48.694;9.476;2023-03-23T15:15:24;16.80;91.00
50013;DHT22;35901;48.694;9.476;2023-03-23T15:17:50;16.80;91.10
50013;DHT22;35901;48.694;9.476;2023-03-23T15:22:48;16.90;91.00
50013;DHT22;35901;48.694;9.476;2023-03-23T15:28:06;17.00;90.90
50013;DHT22;35901;48.694;9.476;2023-03-23T15:30:37;17.00;91.10
50013;DHT22;35901;48.694;9.476;2023-03-23T15:33:13;17.00;91.00
50013;DHT22;35901;48.694;9.476;2023-03-23T15:35:45;17.00;90.90
50013;DHT22;35901;48.694;9.476;2023-03-23T15:38:20;17.00;91.00
50013;DHT22;35901;48.694;9.476;2023-03-23T15:40:50;17.00;91.10
50013;DHT22;35901;48.694;9.476;2023-03-23T15:43:22;17.00;91.10
50013;DHT22;35901;48.694;9.476;2023-03-23T15:46:03;17.00;90.60
50013;DHT22;35901;48.694;9.476;2023-03-23T15:48:32;16.90;90.40
50013;DHT22;35901;48.694;9.476;2023-03-23T15:50:59;16.90;90.10
50013;DHT22;35901;48.694;9.476;2023-03-23T15:55:57;16.80;90.00
50013;DHT22;35901;48.694;9.476;2023-03-23T15:58:24;16.80;90.10
50013;DHT22;35901;48.694;9.476;2023-03-23T16:00:50;16.70;90.40
50013;DHT22;35901;48.694;9.476;2023-03-23T16:03:22;16.60;90.40
50013;DHT22;35901;48.694;9.476;2023-03-23T16:05:50;16.50;90.50
50013;DHT22;35901;48.694;9.476;2023-03-23T16:08:15;16.50;90.40
50013;DHT22;35901;48.694;9.476;2023-03-23T16:10:42;16.50;90.40
50013;DHT22;35901;48.694;9.476;2023-03-23T16:13:08;16.50;90.40
50013;DHT22;35901;48.694;9.476;2023-03-23T16:15:33;16.40;90.50
50013;DHT22;35901;48.694;9.476;2023-03-23T16:17:59;16.30;90.50
50013;DHT22;35901;48.694;9.476;2023-03-23T16:20:26;16.30;90.70
50013;DHT22;35901;48.694;9.476;2023-03-23T16:22:52;16.30;90.70
50013;DHT22;35901;48.694;9.476;2023-03-23T16:25:18;16.30;90.50
50013;DHT22;35901;48.694;9.476;2023-03-23T16:27:44;16.20;90.60
50013;DHT22;35901;48.694;9.476;2023-03-23T16:30:26;16.20;90.80
50013;DHT22;35901;48.694;9.476;2023-03-23T16:32:52;16.10;90.90
50013;DHT22;35901;48.694;9.476;2023-03-23T16:35:19;16.10;90.80
50013;DHT22;35901;48.694;9.476;2023-03-23T16:37:51;16.10;90.80
50013;DHT22;35901;48.694;9.476;2023-03-23T16:40:18;16.10;90.90
50013;DHT22;35901;48.694;9.476;2023-03-23T16:42:44;16.10;90.90
50013;DHT22;35901;48.694;9.476;2023-03-23T16:45:11;16.00;91.00
50013;DHT22;35901;48.694;9.476;2023-03-23T16:47:38;16.00;91.10
50013;DHT22;35901;48.694;9.476;2023-03-23T16:50:05;15.90;91.20
50013;DHT22;35901;48.694;9.476;2023-03-23T16:52:32;15.90;91.30
50013;DHT22;35901;48.694;9.476;2023-03-23T16:54:58;15.90;91.40
50013;DHT22;35901;48.694;9.476;2023-03-23T16:57:23;15.80;91.40
50013;DHT22;35901;48.694;9.476;2023-03-23T16:59:49;15.80;91.70
50013;DHT22;35901;48.694;9.476;2023-03-23T17:02:16;15.70;91.80
50013;DHT22;35901;48.694;9.476;2023-03-23T17:04:45;15.60;91.90
50013;DHT22;35901;48.694;9.476;2023-03-23T17:07:12;15.50;92.10
50013;DHT22;35901;48.694;9.476;2023-03-23T17:09:38;15.50;92.20
50013;DHT22;35901;48.694;9.476;2023-03-23T17:12:04;15.40;92.20
50013;DHT22;35901;48.694;9.476;2023-03-23T17:14:30;15.40;92.50
50013;DHT22;35901;48.694;9.476;2023-03-23T17:16:56;15.30;92.60
50013;DHT22;35901;48.694;9.476;2023-03-23T17:19:22;15.30;92.70
50013;DHT22;35901;48.694;9.476;2023-03-23T17:21:48;15.30;92.80
50013;DHT22;35901;48.694;9.476;2023-03-23T17:24:14;15.20;92.90
50013;DHT22;35901;48.694;9.476;2023-03-23T17:26:40;15.20;93.10
50013;DHT22;35901;48.694;9.476;2023-03-23T17:29:06;15.10;93.30
50013;DHT22;35901;48.694;9.476;2023-03-23T17:31:32;15.00;93.40
50013;DHT22;35901;48.694;9.476;2023-03-23T17:33:57;15.00;93.40
50013;DHT22;35901;48.694;9.476;2023-03-23T17:36:23;14.90;93.60
50013;DHT22;35901;48.694;9.476;2023-03-23T17:38:49;14.80;93.60
50013;DHT22;35901;48.694;9.476;2023-03-23T17:41:16;14.80;93.80
50013;DHT22;35901;48.694;9.476;2023-03-23T17:43:42;14.70;93.80
50013;DHT22;35901;48.694;9.476;2023-03-23T17:46:09;14.60;94.30